Change the Weather History Date:

Tuesday, October 8, 2013

  Actual Average Record
Temperature  
Mean Temperature 38 °F -  
Max Temperature 42 °F - - ()
Min Temperature 35 °F - - ()
Degree Days  
Heating Degree Days 26    
Moisture  
Dew Point 35 °F    
Average Humidity 90    
Maximum Humidity 93    
Minimum Humidity 76    
Precipitation  
Precipitation 0.27 in - - ()
Sea Level Pressure  
Sea Level Pressure 28.80 in    
Wind  
Wind Speed 24 mph (NE)    
Max Wind Speed 39 mph    
Max Gust Speed 52 mph    
Visibility 9 miles    
Events      
T = Trace of Precipitation, MM = Missing Value Source: NWS Daily Summary

Daily Weather History Graph

Daily Weather History Graph

Search for Another Location

Airport or City:

Trip Planner

Search our weather history database for the weather conditions in past years. The results will help you decide how hot, cold, wet, or windy it might be!

Date:

Astronomy

Oct. 08, 2013 Rise Set
Actual Time 9:23 AM AKDT 7:53 PM AKDT
Civil Twilight 8:35 AM AKDT 8:42 PM AKDT
Nautical Twilight 7:38 AM AKDT 9:38 PM AKDT
Astronomical Twilight 6:39 AM AKDT 10:36 PM AKDT
Moon 3:05 PM AKDT (10/8) 9:05 PM AKDT (10/8)
Length of Visible Light 12h 07m
Length of Day
10h 29m
Waxing Crescent, 17% of the Moon is Illuminated
Oct 8
Waxing Crescent
Oct 11
First Quarter
Oct 18
Full
Oct 26
Last Quarter
Nov 3
New

Hourly Weather History & Observations

Time (AKDT) Temp. Windchill Dew Point Humidity Pressure Visibility Wind Dir Wind Speed Gust Speed Precip Events Conditions
12:16 AM 35.6 °F 23.7 °F 33.8 °F 93% - 10.0 mi NE 24.2 mph 32.2 mph 0.01 in   Overcast
12:36 AM 37.4 °F 25.4 °F 33.8 °F 87% 29.17 in 10.0 mi ENE 27.6 mph 34.5 mph 0.02 in   Overcast
12:56 AM 37.4 °F 26.1 °F 33.8 °F 87% - 10.0 mi ENE 24.2 mph 34.5 mph 0.02 in   Overcast
1:16 AM 37.4 °F 25.9 °F 33.8 °F 87% - 10.0 mi ENE 25.3 mph 36.8 mph 0.01 in   Overcast
1:36 AM 37.4 °F 25.9 °F 33.8 °F 87% - 10.0 mi ENE 25.3 mph 34.5 mph 0.01 in   Overcast
1:56 AM 37.4 °F 25.6 °F 33.8 °F 87% 29.07 in 10.0 mi ENE 26.5 mph 39.1 mph 0.02 in   Overcast
2:16 AM 37.4 °F 24.8 °F 33.8 °F 87% 29.03 in 9.0 mi ENE 31.1 mph 39.1 mph 0.01 in   Overcast
2:36 AM 37.4 °F 25.2 °F 33.8 °F 87% 29.01 in 10.0 mi ENE 28.8 mph 39.1 mph 0.02 in   Overcast
2:56 AM 37.4 °F 25.0 °F 33.8 °F 87% 28.99 in 8.0 mi ENE 29.9 mph 36.8 mph 0.02 in   Overcast
3:16 AM 37.4 °F 25.4 °F 33.8 °F 87% 28.97 in 9.0 mi ENE 27.6 mph 36.8 mph 0.02 in   Overcast
3:36 AM 37.4 °F 24.8 °F 33.8 °F 87% 28.94 in 9.0 mi ENE 31.1 mph 35.7 mph 0.03 in   Overcast
3:56 AM 37.4 °F 25.4 °F 33.8 °F 87% 28.93 in 10.0 mi ENE 27.6 mph 38.0 mph 0.04 in   Overcast
4:16 AM 37.4 °F 25.0 °F 33.8 °F 87% 28.91 in 8.0 mi ENE 29.9 mph 38.0 mph 0.01 in   Overcast
4:36 AM 37.4 °F 24.4 °F 33.8 °F 87% 28.88 in 6.0 mi ENE 33.4 mph 42.6 mph 0.04 in   Overcast
4:56 AM 35.6 °F 22.1 °F 33.8 °F 93% 28.86 in 7.0 mi ENE 32.2 mph 42.6 mph 0.05 in   Overcast
5:16 AM 35.6 °F 21.9 °F 33.8 °F 93% - 6.0 mi ENE 33.4 mph 41.4 mph 0.02 in   Overcast
5:36 AM 35.6 °F 21.5 °F 33.8 °F 93% 28.81 in 6.0 mi ENE 35.7 mph 47.2 mph 0.04 in   Overcast
5:56 AM 35.6 °F 23.0 °F 33.8 °F 93% 28.80 in 7.0 mi ENE 27.6 mph 41.4 mph 0.04 in   Overcast
6:16 AM 35.6 °F 21.3 °F 33.8 °F 93% 28.77 in 7.0 mi ENE 36.8 mph 43.7 mph N/A   Overcast
6:36 AM 35.6 °F 21.1 °F 33.8 °F 93% 28.74 in 10.0 mi ENE 38.0 mph 51.8 mph 0.01 in   Overcast
6:56 AM 35.6 °F 21.3 °F 32.0 °F 87% 28.73 in 10.0 mi ENE 36.8 mph 50.6 mph 0.01 in   Overcast
7:16 AM 35.6 °F 21.0 °F 33.8 °F 93% 28.72 in 8.0 mi ENE 39.1 mph 47.2 mph N/A   Overcast
7:36 AM 35.6 °F 21.1 °F 33.8 °F 93% 28.70 in 6.0 mi ENE 38.0 mph 50.6 mph N/A   Overcast
7:56 AM 35.6 °F 21.5 °F 33.8 °F 93% 28.70 in 8.0 mi ENE 35.7 mph 46.0 mph N/A   Overcast
8:16 AM 35.6 °F 21.5 °F 33.8 °F 93% 28.69 in 9.0 mi ENE 35.7 mph 46.0 mph N/A   Overcast
8:36 AM 35.6 °F 22.3 °F 33.8 °F 93% 28.68 in 10.0 mi ENE 31.1 mph 42.6 mph N/A   Overcast
8:56 AM 35.6 °F 21.9 °F 33.8 °F 93% 28.68 in 10.0 mi ENE 33.4 mph 42.6 mph N/A   Overcast
9:16 AM 35.6 °F 22.3 °F 33.8 °F 93% 28.68 in 10.0 mi ENE 31.1 mph 42.6 mph N/A   Overcast
9:36 AM 35.6 °F 22.1 °F 33.8 °F 93% 28.68 in 10.0 mi ENE 32.2 mph 39.1 mph N/A   Overcast
9:56 AM 35.6 °F 23.0 °F 33.8 °F 93% 28.69 in 6.0 mi ENE 27.6 mph 33.4 mph N/A   Overcast
10:16 AM 35.6 °F 23.0 °F 33.8 °F 93% 28.69 in 8.0 mi ENE 27.6 mph 34.5 mph N/A   Overcast
10:36 AM 35.6 °F 24.0 °F 33.8 °F 93% 28.69 in 10.0 mi ENE 23.0 mph 31.1 mph N/A   Overcast
10:56 AM 35.6 °F 23.7 °F 33.8 °F 93% 28.68 in 10.0 mi ENE 24.2 mph 29.9 mph N/A   Overcast
11:16 AM 37.4 °F 26.6 °F 33.8 °F 87% 28.69 in 10.0 mi ENE 21.9 mph 26.5 mph N/A   Overcast
11:36 AM 37.4 °F 27.2 °F 33.8 °F 87% 28.69 in 10.0 mi ENE 19.6 mph - N/A   Overcast
11:56 AM 37.4 °F 27.2 °F 35.6 °F 93% 28.69 in 10.0 mi ENE 19.6 mph - N/A   Overcast
12:16 PM 37.4 °F 27.5 °F 35.6 °F 93% 28.69 in 6.0 mi ENE 18.4 mph 25.3 mph N/A   Overcast
12:36 PM 37.4 °F 28.2 °F 35.6 °F 93% 28.69 in 10.0 mi ENE 16.1 mph - N/A   Overcast
12:56 PM 39.2 °F 30.8 °F 35.6 °F 87% 28.70 in 10.0 mi ENE 15.0 mph - N/A   Overcast
1:16 PM 39.2 °F 30.8 °F 35.6 °F 87% 28.70 in 10.0 mi ENE 15.0 mph - N/A   Overcast
1:36 PM 39.2 °F 30.8 °F 37.4 °F 93% 28.70 in 10.0 mi ENE 15.0 mph - N/A   Overcast
1:56 PM 41.0 °F 33.5 °F 37.4 °F 87% 28.70 in 10.0 mi ENE 13.8 mph - N/A   Overcast
2:16 PM 41.0 °F 33.1 °F 37.4 °F 87% 28.70 in 10.0 mi ENE 15.0 mph - N/A   Overcast
2:36 PM 41.0 °F 34.3 °F 37.4 °F 87% 28.71 in 10.0 mi ENE 11.5 mph - N/A   Overcast
2:56 PM 42.8 °F 37.0 °F 37.4 °F 81% 28.71 in 10.0 mi ENE 10.4 mph - N/A   Overcast
3:16 PM 41.0 °F 34.7 °F 37.4 °F 87% 28.71 in 10.0 mi East 10.4 mph - N/A   Overcast
3:36 PM 42.8 °F 38.6 °F 37.4 °F 81% 28.72 in 10.0 mi East 6.9 mph - N/A   Mostly Cloudy
3:56 PM 42.8 °F 38.6 °F 35.6 °F 76% 28.73 in 10.0 mi East 6.9 mph - N/A   Overcast
4:16 PM 41.0 °F 36.4 °F 37.4 °F 87% 28.73 in 10.0 mi ENE 6.9 mph - N/A   Overcast
4:36 PM 41.0 °F 39.0 °F 35.6 °F 81% 28.74 in 10.0 mi SE 3.5 mph - 0.01 in   Mostly Cloudy
4:56 PM 41.0 °F 36.4 °F 37.4 °F 87% 28.75 in 10.0 mi NE 6.9 mph - 0.02 in   Overcast
5:16 PM 39.2 °F 35.0 °F 37.4 °F 93% 28.76 in 10.0 mi NNE 5.8 mph - N/A   Overcast
5:36 PM 39.2 °F 35.0 °F 37.4 °F 93% 28.77 in 10.0 mi NNW 5.8 mph - 0.01 in   Overcast
5:56 PM 39.2 °F 33.0 °F 37.4 °F 93% - 10.0 mi North 9.2 mph - 0.01 in   Overcast
6:16 PM 39.2 °F 32.0 °F 37.4 °F 93% - 10.0 mi NNW 11.5 mph - N/A   Overcast
6:36 PM 39.2 °F 32.0 °F 37.4 °F 93% - 10.0 mi NNW 11.5 mph - N/A   Overcast
6:56 PM 39.2 °F 32.0 °F 37.4 °F 93% - 10.0 mi NW 11.5 mph - 0.01 in   Overcast
7:16 PM 39.2 °F 31.6 °F 37.4 °F 93% - 10.0 mi NW 12.7 mph 18.4 mph 0.01 in   Overcast
7:36 PM 37.4 °F 27.8 °F 35.6 °F 93% - 10.0 mi NW 17.3 mph 23.0 mph 0.01 in   Overcast
7:56 PM 37.4 °F 27.8 °F 35.6 °F 93% - 10.0 mi NW 17.3 mph 24.2 mph 0.02 in   Overcast
8:16 PM 37.4 °F 27.5 °F 35.6 °F 93% - 10.0 mi NW 18.4 mph 24.2 mph N/A   Overcast
8:36 PM 37.4 °F 27.8 °F 33.8 °F 87% - 10.0 mi NW 17.3 mph 23.0 mph N/A   Overcast
8:56 PM 35.6 °F 25.2 °F 33.8 °F 93% - 10.0 mi NW 18.4 mph 24.2 mph 0.01 in   Overcast
9:16 PM 35.6 °F 24.8 °F 33.8 °F 93% - 10.0 mi NW 19.6 mph 27.6 mph N/A   Overcast
9:36 PM 35.6 °F 26.2 °F 33.8 °F 93% - 10.0 mi NW 15.0 mph 26.5 mph N/A   Overcast
9:56 PM 35.6 °F 25.5 °F 33.8 °F 93% - 10.0 mi NW 17.3 mph 26.5 mph N/A   Overcast
10:16 PM 35.6 °F 25.9 °F 33.8 °F 93% 28.98 in 10.0 mi NW 16.1 mph 23.0 mph N/A   Overcast
10:36 PM 35.6 °F 26.2 °F 33.8 °F 93% 28.99 in 10.0 mi NW 15.0 mph 25.3 mph N/A   Overcast
10:56 PM 37.4 °F 28.2 °F 33.8 °F 87% 29.01 in 10.0 mi NW 16.1 mph 25.3 mph N/A   Overcast
11:16 PM 37.4 °F 27.8 °F 33.8 °F 87% 29.03 in 10.0 mi NW 17.3 mph 23.0 mph N/A   Overcast
11:36 PM 37.4 °F 27.8 °F 33.8 °F 87% 29.04 in 10.0 mi NW 17.3 mph 26.5 mph N/A   Overcast
11:56 PM 37.4 °F 28.5 °F 33.8 °F 87% 29.06 in 10.0 mi WNW 15.0 mph 23.0 mph N/A   Overcast